sensor_id;sensor_type;location;lat;lon;timestamp;temperature;humidity
17843;DHT22;69286;48.222;16.332;2024-03-23T00:54:43;13.40;94.00
17843;DHT22;69286;48.222;16.332;2024-03-23T00:57:10;13.40;94.00
17843;DHT22;69286;48.222;16.332;2024-03-23T00:59:36;13.40;94.00
17843;DHT22;69286;48.222;16.332;2024-03-23T01:02:03;13.40;94.10
17843;DHT22;69286;48.222;16.332;2024-03-23T01:04:29;13.40;94.10
17843;DHT22;69286;48.222;16.332;2024-03-23T01:06:56;13.40;94.10
17843;DHT22;69286;48.222;16.332;2024-03-23T01:09:22;13.30;94.00
17843;DHT22;69286;48.222;16.332;2024-03-23T01:11:50;13.30;94.10
17843;DHT22;69286;48.222;16.332;2024-03-23T01:14:16;13.30;94.30
17843;DHT22;69286;48.222;16.332;2024-03-23T01:16:43;13.30;94.40
17843;DHT22;69286;48.222;16.332;2024-03-23T01:19:09;13.20;94.50
17843;DHT22;69286;48.222;16.332;2024-03-23T01:21:36;13.20;94.60
17843;DHT22;69286;48.222;16.332;2024-03-23T01:24:02;13.20;94.80
17843;DHT22;69286;48.222;16.332;2024-03-23T01:26:29;13.10;94.90
17843;DHT22;69286;48.222;16.332;2024-03-23T01:28:57;13.10;95.10
17843;DHT22;69286;48.222;16.332;2024-03-23T01:31:23;13.20;95.10
17843;DHT22;69286;48.222;16.332;2024-03-23T01:33:50;13.30;95.00
17843;DHT22;69286;48.222;16.332;2024-03-23T01:36:16;13.30;95.00
17843;DHT22;69286;48.222;16.332;2024-03-23T01:38:44;13.30;95.10
17843;DHT22;69286;48.222;16.332;2024-03-23T01:41:11;13.20;95.10
17843;DHT22;69286;48.222;16.332;2024-03-23T01:43:37;13.30;95.20
17843;DHT22;69286;48.222;16.332;2024-03-23T01:46:05;13.20;95.60
17843;DHT22;69286;48.222;16.332;2024-03-23T01:48:31;13.30;95.60
17843;DHT22;69286;48.222;16.332;2024-03-23T01:50:58;13.20;95.20
17843;DHT22;69286;48.222;16.332;2024-03-23T01:53:25;13.30;95.30
17843;DHT22;69286;48.222;16.332;2024-03-23T01:55:52;13.30;95.10
17843;DHT22;69286;48.222;16.332;2024-03-23T01:58:18;13.30;95.10
17843;DHT22;69286;48.222;16.332;2024-03-23T02:00:45;13.30;95.20
17843;DHT22;69286;48.222;16.332;2024-03-23T02:03:30;13.20;95.20
17843;DHT22;69286;48.222;16.332;2024-03-23T02:05:57;13.30;95.30
17843;DHT22;69286;48.222;16.332;2024-03-23T02:08:24;13.30;95.20
17843;DHT22;69286;48.222;16.332;2024-03-23T02:10:51;13.30;95.20
17843;DHT22;69286;48.222;16.332;2024-03-23T02:13:18;13.30;95.30
17843;DHT22;69286;48.222;16.332;2024-03-23T02:15:45;13.30;95.20
17843;DHT22;69286;48.222;16.332;2024-03-23T02:18:11;13.30;95.30
17843;DHT22;69286;48.222;16.332;2024-03-23T02:20:40;13.30;95.20
17843;DHT22;69286;48.222;16.332;2024-03-23T02:23:13;13.30;95.20
17843;DHT22;69286;48.222;16.332;2024-03-23T02:25:40;13.30;95.20
17843;DHT22;69286;48.222;16.332;2024-03-23T02:28:06;13.30;95.10
17843;DHT22;69286;48.222;16.332;2024-03-23T02:30:33;13.30;95.10
17843;DHT22;69286;48.222;16.332;2024-03-23T02:32:59;13.20;95.20
17843;DHT22;69286;48.222;16.332;2024-03-23T02:35:26;13.20;95.10
17843;DHT22;69286;48.222;16.332;2024-03-23T02:37:52;13.20;95.20
17843;DHT22;69286;48.222;16.332;2024-03-23T02:40:22;13.20;95.30
17843;DHT22;69286;48.222;16.332;2024-03-23T02:42:48;13.20;95.30
17843;DHT22;69286;48.222;16.332;2024-03-23T02:45:15;13.20;95.40
17843;DHT22;69286;48.222;16.332;2024-03-23T02:47:41;13.10;95.50
17843;DHT22;69286;48.222;16.332;2024-03-23T02:50:09;13.10;95.60
17843;DHT22;69286;48.222;16.332;2024-03-23T02:52:35;13.10;95.70
17843;DHT22;69286;48.222;16.332;2024-03-23T02:55:02;13.10;95.80
17843;DHT22;69286;48.222;16.332;2024-03-23T02:57:30;13.10;95.80
17843;DHT22;69286;48.222;16.332;2024-03-23T02:59:57;13.10;95.90
17843;DHT22;69286;48.222;16.332;2024-03-23T03:02:23;13.10;95.90
17843;DHT22;69286;48.222;16.332;2024-03-23T03:04:50;13.10;96.00
17843;DHT22;69286;48.222;16.332;2024-03-23T03:07:16;13.10;96.00
17843;DHT22;69286;48.222;16.332;2024-03-23T03:09:43;13.10;96.20
17843;DHT22;69286;48.222;16.332;2024-03-23T03:12:09;13.00;96.10
17843;DHT22;69286;48.222;16.332;2024-03-23T03:14:37;13.00;96.40
17843;DHT22;69286;48.222;16.332;2024-03-23T03:17:04;13.00;96.40
17843;DHT22;69286;48.222;16.332;2024-03-23T03:19:30;13.00;96.50
17843;DHT22;69286;48.222;16.332;2024-03-23T03:21:56;13.00;96.50
17843;DHT22;69286;48.222;16.332;2024-03-23T03:24:23;13.00;96.60
17843;DHT22;69286;48.222;16.332;2024-03-23T03:26:49;13.00;96.60
17843;DHT22;69286;48.222;16.332;2024-03-23T03:29:16;12.90;96.70
17843;DHT22;69286;48.222;16.332;2024-03-23T03:31:44;13.00;96.70
17843;DHT22;69286;48.222;16.332;2024-03-23T03:34:11;12.90;96.70
17843;DHT22;69286;48.222;16.332;2024-03-23T03:36:37;12.90;96.70
17843;DHT22;69286;48.222;16.332;2024-03-23T03:39:04;12.90;96.80
17843;DHT22;69286;48.222;16.332;2024-03-23T03:41:31;12.90;96.90
17843;DHT22;69286;48.222;16.332;2024-03-23T03:43:58;12.90;97.00
17843;DHT22;69286;48.222;16.332;2024-03-23T03:46:27;12.90;97.00
17843;DHT22;69286;48.222;16.332;2024-03-23T03:48:56;12.90;97.10
17843;DHT22;69286;48.222;16.332;2024-03-23T03:51:22;12.90;97.10
17843;DHT22;69286;48.222;16.332;2024-03-23T03:53:48;13.00;97.20
17843;DHT22;69286;48.222;16.332;2024-03-23T03:56:14;12.90;97.20
17843;DHT22;69286;48.222;16.332;2024-03-23T03:58:42;12.90;97.20
17843;DHT22;69286;48.222;16.332;2024-03-23T04:01:08;12.90;97.40
17843;DHT22;69286;48.222;16.332;2024-03-23T04:03:35;12.90;97.30
17843;DHT22;69286;48.222;16.332;2024-03-23T04:06:02;12.90;97.40
17843;DHT22;69286;48.222;16.332;2024-03-23T04:08:29;12.90;97.40
17843;DHT22;69286;48.222;16.332;2024-03-23T04:10:55;12.80;97.70
17843;DHT22;69286;48.222;16.332;2024-03-23T04:13:22;12.70;97.80
17843;DHT22;69286;48.222;16.332;2024-03-23T04:15:48;12.70;97.90
17843;DHT22;69286;48.222;16.332;2024-03-23T04:18:15;12.70;98.00
17843;DHT22;69286;48.222;16.332;2024-03-23T04:20:41;12.70;98.10
17843;DHT22;69286;48.222;16.332;2024-03-23T04:23:10;12.80;98.20
17843;DHT22;69286;48.222;16.332;2024-03-23T04:25:36;12.80;98.20
17843;DHT22;69286;48.222;16.332;2024-03-23T04:28:03;12.80;98.30
17843;DHT22;69286;48.222;16.332;2024-03-23T04:30:30;12.80;98.30
17843;DHT22;69286;48.222;16.332;2024-03-23T04:32:57;12.80;98.50
17843;DHT22;69286;48.222;16.332;2024-03-23T04:35:24;12.80;98.50
17843;DHT22;69286;48.222;16.332;2024-03-23T04:37:52;12.80;98.50
17843;DHT22;69286;48.222;16.332;2024-03-23T04:40:22;12.80;98.40
17843;DHT22;69286;48.222;16.332;2024-03-23T04:42:50;12.80;98.40
17843;DHT22;69286;48.222;16.332;2024-03-23T04:45:17;12.80;98.50
17843;DHT22;69286;48.222;16.332;2024-03-23T04:47:44;12.80;98.50
17843;DHT22;69286;48.222;16.332;2024-03-23T04:50:11;12.80;98.50
17843;DHT22;69286;48.222;16.332;2024-03-23T04:52:38;12.80;98.50
17843;DHT22;69286;48.222;16.332;2024-03-23T04:55:05;12.70;98.50
17843;DHT22;69286;48.222;16.332;2024-03-23T04:57:34;12.80;98.50
17843;DHT22;69286;48.222;16.332;2024-03-23T05:00:00;12.80;98.40
17843;DHT22;69286;48.222;16.332;2024-03-23T05:02:28;12.80;98.40
17843;DHT22;69286;48.222;16.332;2024-03-23T05:04:55;12.80;98.50
17843;DHT22;69286;48.222;16.332;2024-03-23T05:07:21;12.70;98.50
17843;DHT22;69286;48.222;16.332;2024-03-23T05:09:48;12.70;98.50
17843;DHT22;69286;48.222;16.332;2024-03-23T05:12:14;12.70;98.70
17843;DHT22;69286;48.222;16.332;2024-03-23T05:14:43;12.70;98.60
17843;DHT22;69286;48.222;16.332;2024-03-23T05:17:09;12.70;98.50
17843;DHT22;69286;48.222;16.332;2024-03-23T05:19:36;12.80;98.70
17843;DHT22;69286;48.222;16.332;2024-03-23T05:22:01;12.80;98.60
17843;DHT22;69286;48.222;16.332;2024-03-23T05:24:28;12.80;98.70
17843;DHT22;69286;48.222;16.332;2024-03-23T05:26:54;12.80;98.70
17843;DHT22;69286;48.222;16.332;2024-03-23T05:29:24;12.80;98.60
17843;DHT22;69286;48.222;16.332;2024-03-23T05:31:52;12.90;98.60
17843;DHT22;69286;48.222;16.332;2024-03-23T05:34:22;12.90;98.50
17843;DHT22;69286;48.222;16.332;2024-03-23T05:36:48;13.00;98.40
17843;DHT22;69286;48.222;16.332;2024-03-23T05:39:15;13.00;98.40
17843;DHT22;69286;48.222;16.332;2024-03-23T05:41:42;13.00;98.30
17843;DHT22;69286;48.222;16.332;2024-03-23T05:44:09;13.10;98.20
17843;DHT22;69286;48.222;16.332;2024-03-23T05:46:36;13.20;98.20
17843;DHT22;69286;48.222;16.332;2024-03-23T05:49:05;13.30;97.90
17843;DHT22;69286;48.222;16.332;2024-03-23T05:51:31;13.30;97.90
17843;DHT22;69286;48.222;16.332;2024-03-23T05:53:58;13.40;97.90
17843;DHT22;69286;48.222;16.332;2024-03-23T05:56:24;13.50;97.70
17843;DHT22;69286;48.222;16.332;2024-03-23T05:58:51;13.50;97.60
17843;DHT22;69286;48.222;16.332;2024-03-23T06:01:17;13.60;97.50
17843;DHT22;69286;48.222;16.332;2024-03-23T06:03:45;13.70;97.50
17843;DHT22;69286;48.222;16.332;2024-03-23T06:06:12;13.80;97.30
17843;DHT22;69286;48.222;16.332;2024-03-23T06:08:39;13.90;96.90
17843;DHT22;69286;48.222;16.332;2024-03-23T06:11:06;14.00;96.80
17843;DHT22;69286;48.222;16.332;2024-03-23T06:13:33;14.00;96.80
17843;DHT22;69286;48.222;16.332;2024-03-23T06:15:59;14.10;96.80
17843;DHT22;69286;48.222;16.332;2024-03-23T06:18:26;14.20;96.70
17843;DHT22;69286;48.222;16.332;2024-03-23T06:20:53;14.20;96.50
17843;DHT22;69286;48.222;16.332;2024-03-23T06:23:21;14.20;96.40
17843;DHT22;69286;48.222;16.332;2024-03-23T06:25:47;14.20;96.20
17843;DHT22;69286;48.222;16.332;2024-03-23T06:28:14;14.10;96.20
17843;DHT22;69286;48.222;16.332;2024-03-23T06:30:40;14.10;96.20
17843;DHT22;69286;48.222;16.332;2024-03-23T06:33:08;14.10;96.30
17843;DHT22;69286;48.222;16.332;2024-03-23T06:35:34;14.00;96.50
17843;DHT22;69286;48.222;16.332;2024-03-23T06:38:01;14.00;96.30
17843;DHT22;69286;48.222;16.332;2024-03-23T06:40:28;14.00;96.50
17843;DHT22;69286;48.222;16.332;2024-03-23T06:42:55;14.00;96.40
17843;DHT22;69286;48.222;16.332;2024-03-23T06:45:21;14.00;96.30
17843;DHT22;69286;48.222;16.332;2024-03-23T06:47:49;14.10;96.40
17843;DHT22;69286;48.222;16.332;2024-03-23T06:50:15;14.00;96.10
17843;DHT22;69286;48.222;16.332;2024-03-23T06:52:42;14.10;96.10
17843;DHT22;69286;48.222;16.332;2024-03-23T06:55:08;14.10;96.10
17843;DHT22;69286;48.222;16.332;2024-03-23T06:57:37;14.00;96.10
17843;DHT22;69286;48.222;16.332;2024-03-23T07:00:03;14.10;96.10
17843;DHT22;69286;48.222;16.332;2024-03-23T07:02:35;14.10;95.90
17843;DHT22;69286;48.222;16.332;2024-03-23T07:05:01;14.10;96.00
17843;DHT22;69286;48.222;16.332;2024-03-23T07:07:29;14.10;95.80
17843;DHT22;69286;48.222;16.332;2024-03-23T07:09:55;14.10;95.60
17843;DHT22;69286;48.222;16.332;2024-03-23T07:12:23;14.10;95.50
17843;DHT22;69286;48.222;16.332;2024-03-23T07:14:50;14.10;95.40
17843;DHT22;69286;48.222;16.332;2024-03-23T07:17:17;14.20;95.30
17843;DHT22;69286;48.222;16.332;2024-03-23T07:19:44;14.20;95.20
17843;DHT22;69286;48.222;16.332;2024-03-23T07:22:11;14.20;95.10
17843;DHT22;69286;48.222;16.332;2024-03-23T07:24:37;14.30;95.10
17843;DHT22;69286;48.222;16.332;2024-03-23T07:27:05;14.30;95.10
17843;DHT22;69286;48.222;16.332;2024-03-23T07:29:31;14.40;94.80
17843;DHT22;69286;48.222;16.332;2024-03-23T07:31:59;14.50;94.70
17843;DHT22;69286;48.222;16.332;2024-03-23T07:34:25;14.50;94.50
17843;DHT22;69286;48.222;16.332;2024-03-23T07:36:52;14.60;94.20
17843;DHT22;69286;48.222;16.332;2024-03-23T07:39:18;14.60;94.20
17843;DHT22;69286;48.222;16.332;2024-03-23T07:41:45;14.70;94.00
17843;DHT22;69286;48.222;16.332;2024-03-23T07:44:11;14.80;93.90
17843;DHT22;69286;48.222;16.332;2024-03-23T07:46:38;15.00;93.70
17843;DHT22;69286;48.222;16.332;2024-03-23T07:49:06;15.10;92.60
17843;DHT22;69286;48.222;16.332;2024-03-23T07:51:33;15.20;92.40
17843;DHT22;69286;48.222;16.332;2024-03-23T07:54:00;15.70;92.00
17843;DHT22;69286;48.222;16.332;2024-03-23T07:56:26;16.50;91.00
17843;DHT22;69286;48.222;16.332;2024-03-23T07:58:53;17.70;88.90
17843;DHT22;69286;48.222;16.332;2024-03-23T08:01:19;19.10;83.50
17843;DHT22;69286;48.222;16.332;2024-03-23T08:03:46;20.10;80.60
17843;DHT22;69286;48.222;16.332;2024-03-23T08:06:15;21.10;77.80
17843;DHT22;69286;48.222;16.332;2024-03-23T08:08:44;22.20;73.80
17843;DHT22;69286;48.222;16.332;2024-03-23T08:11:11;23.20;70.50
17843;DHT22;69286;48.222;16.332;2024-03-23T08:13:40;22.40;70.00
17843;DHT22;69286;48.222;16.332;2024-03-23T08:16:06;23.40;68.80
17843;DHT22;69286;48.222;16.332;2024-03-23T08:18:36;22.80;68.40
17843;DHT22;69286;48.222;16.332;2024-03-23T08:21:03;22.20;70.10
17843;DHT22;69286;48.222;16.332;2024-03-23T08:23:33;21.90;70.40
17843;DHT22;69286;48.222;16.332;2024-03-23T08:26:02;21.80;70.90
17843;DHT22;69286;48.222;16.332;2024-03-23T08:28:29;21.90;71.10
17843;DHT22;69286;48.222;16.332;2024-03-23T08:30:56;21.90;70.70
17843;DHT22;69286;48.222;16.332;2024-03-23T08:33:23;22.20;70.20
17843;DHT22;69286;48.222;16.332;2024-03-23T08:35:54;22.20;68.40
17843;DHT22;69286;48.222;16.332;2024-03-23T08:38:22;22.70;65.70
17843;DHT22;69286;48.222;16.332;2024-03-23T08:40:56;23.80;66.00
17843;DHT22;69286;48.222;16.332;2024-03-23T08:43:24;25.70;60.30
17843;DHT22;69286;48.222;16.332;2024-03-23T08:45:52;27.80;57.50
17843;DHT22;69286;48.222;16.332;2024-03-23T08:48:19;27.90;54.20
17843;DHT22;69286;48.222;16.332;2024-03-23T08:50:46;27.40;54.80
17843;DHT22;69286;48.222;16.332;2024-03-23T08:53:14;26.40;54.40
17843;DHT22;69286;48.222;16.332;2024-03-23T08:55:41;25.90;55.60
17843;DHT22;69286;48.222;16.332;2024-03-23T08:58:09;26.90;54.80
17843;DHT22;69286;48.222;16.332;2024-03-23T09:00:35;28.80;52.90
17843;DHT22;69286;48.222;16.332;2024-03-23T09:03:02;29.90;51.40
17843;DHT22;69286;48.222;16.332;2024-03-23T09:05:30;31.00;50.20
17843;DHT22;69286;48.222;16.332;2024-03-23T09:08:01;31.20;48.90
17843;DHT22;69286;48.222;16.332;2024-03-23T09:10:28;32.20;48.50
17843;DHT22;69286;48.222;16.332;2024-03-23T09:12:55;32.10;46.80
17843;DHT22;69286;48.222;16.332;2024-03-23T09:15:22;32.70;47.20
17843;DHT22;69286;48.222;16.332;2024-03-23T09:17:49;33.50;45.20
17843;DHT22;69286;48.222;16.332;2024-03-23T09:20:15;34.20;43.80
17843;DHT22;69286;48.222;16.332;2024-03-23T09:22:42;33.20;43.10
17843;DHT22;69286;48.222;16.332;2024-03-23T09:25:08;33.00;43.40
17843;DHT22;69286;48.222;16.332;2024-03-23T09:27:35;33.00;43.10
17843;DHT22;69286;48.222;16.332;2024-03-23T09:30:04;31.70;43.60
17843;DHT22;69286;48.222;16.332;2024-03-23T09:32:33;32.30;43.30
17843;DHT22;69286;48.222;16.332;2024-03-23T09:34:58;32.20;43.20
17843;DHT22;69286;48.222;16.332;2024-03-23T09:37:26;31.30;43.50
17843;DHT22;69286;48.222;16.332;2024-03-23T09:39:52;31.80;43.10
17843;DHT22;69286;48.222;16.332;2024-03-23T09:42:19;31.80;43.50
17843;DHT22;69286;48.222;16.332;2024-03-23T09:44:46;30.60;43.60
17843;DHT22;69286;48.222;16.332;2024-03-23T09:47:13;28.50;45.80
17843;DHT22;69286;48.222;16.332;2024-03-23T09:49:41;28.20;47.00
17843;DHT22;69286;48.222;16.332;2024-03-23T09:52:08;27.50;47.00
17843;DHT22;69286;48.222;16.332;2024-03-23T09:54:34;26.60;48.20
17843;DHT22;69286;48.222;16.332;2024-03-23T09:57:03;26.00;49.40
17843;DHT22;69286;48.222;16.332;2024-03-23T09:59:29;25.90;49.50
17843;DHT22;69286;48.222;16.332;2024-03-23T10:01:57;26.10;49.70
17843;DHT22;69286;48.222;16.332;2024-03-23T10:04:39;26.00;49.30
17843;DHT22;69286;48.222;16.332;2024-03-23T10:07:12;25.90;49.90
17843;DHT22;69286;48.222;16.332;2024-03-23T10:09:39;26.50;49.20
17843;DHT22;69286;48.222;16.332;2024-03-23T10:12:10;25.90;50.00
17843;DHT22;69286;48.222;16.332;2024-03-23T10:14:36;25.80;50.50
17843;DHT22;69286;48.222;16.332;2024-03-23T10:17:15;25.80;50.10
17843;DHT22;69286;48.222;16.332;2024-03-23T10:19:43;25.90;50.60
17843;DHT22;69286;48.222;16.332;2024-03-23T10:22:14;26.40;50.00
17843;DHT22;69286;48.222;16.332;2024-03-23T10:24:41;27.10;49.50
17843;DHT22;69286;48.222;16.332;2024-03-23T10:27:08;27.50;48.90
17843;DHT22;69286;48.222;16.332;2024-03-23T10:29:34;27.90;48.50
17843;DHT22;69286;48.222;16.332;2024-03-23T10:32:11;27.70;47.60
17843;DHT22;69286;48.222;16.332;2024-03-23T10:34:37;27.90;48.40
17843;DHT22;69286;48.222;16.332;2024-03-23T10:37:05;27.80;47.00
17843;DHT22;69286;48.222;16.332;2024-03-23T10:39:34;28.20;47.80
17843;DHT22;69286;48.222;16.332;2024-03-23T10:42:05;28.60;45.60
17843;DHT22;69286;48.222;16.332;2024-03-23T10:44:32;28.40;46.10
17843;DHT22;69286;48.222;16.332;2024-03-23T10:46:59;28.10;46.50
17843;DHT22;69286;48.222;16.332;2024-03-23T10:49:28;27.80;46.20
17843;DHT22;69286;48.222;16.332;2024-03-23T10:52:00;27.20;46.70
17843;DHT22;69286;48.222;16.332;2024-03-23T10:54:27;26.40;47.80
17843;DHT22;69286;48.222;16.332;2024-03-23T10:56:59;25.90;47.90
17843;DHT22;69286;48.222;16.332;2024-03-23T10:59:28;25.60;48.50
17843;DHT22;69286;48.222;16.332;2024-03-23T11:01:56;25.40;49.20
17843;DHT22;69286;48.222;16.332;2024-03-23T11:04:33;25.40;49.10
17843;DHT22;69286;48.222;16.332;2024-03-23T11:07:00;25.20;49.00
17843;DHT22;69286;48.222;16.332;2024-03-23T11:09:40;25.10;48.70
17843;DHT22;69286;48.222;16.332;2024-03-23T11:12:26;25.10;49.10
17843;DHT22;69286;48.222;16.332;2024-03-23T11:14:54;25.20;49.00
17843;DHT22;69286;48.222;16.332;2024-03-23T11:17:22;25.30;49.10
17843;DHT22;69286;48.222;16.332;2024-03-23T11:19:56;25.30;48.70
17843;DHT22;69286;48.222;16.332;2024-03-23T11:22:41;25.10;49.40
17843;DHT22;69286;48.222;16.332;2024-03-23T11:25:18;25.00;49.50
17843;DHT22;69286;48.222;16.332;2024-03-23T11:27:49;25.00;50.00
17843;DHT22;69286;48.222;16.332;2024-03-23T11:30:17;25.10;49.90
17843;DHT22;69286;48.222;16.332;2024-03-23T11:32:45;25.10;49.70
17843;DHT22;69286;48.222;16.332;2024-03-23T11:35:25;25.00;50.00
17843;DHT22;69286;48.222;16.332;2024-03-23T11:38:03;24.90;51.50
17843;DHT22;69286;48.222;16.332;2024-03-23T11:40:30;24.80;55.50
17843;DHT22;69286;48.222;16.332;2024-03-23T11:43:00;24.60;56.10
17843;DHT22;69286;48.222;16.332;2024-03-23T11:45:27;24.40;62.20
17843;DHT22;69286;48.222;16.332;2024-03-23T11:48:05;24.20;55.20
17843;DHT22;69286;48.222;16.332;2024-03-23T11:50:32;24.00;55.00
17843;DHT22;69286;48.222;16.332;2024-03-23T11:53:11;24.00;55.40
17843;DHT22;69286;48.222;16.332;2024-03-23T11:55:46;24.20;55.40
17843;DHT22;69286;48.222;16.332;2024-03-23T11:58:16;24.20;52.80
17843;DHT22;69286;48.222;16.332;2024-03-23T12:00:43;24.10;52.90
17843;DHT22;69286;48.222;16.332;2024-03-23T12:03:16;24.00;53.10
17843;DHT22;69286;48.222;16.332;2024-03-23T12:05:48;23.80;53.40
17843;DHT22;69286;48.222;16.332;2024-03-23T12:08:19;23.60;53.40
17843;DHT22;69286;48.222;16.332;2024-03-23T12:10:49;23.40;54.40
17843;DHT22;69286;48.222;16.332;2024-03-23T12:13:19;23.40;54.40
17843;DHT22;69286;48.222;16.332;2024-03-23T12:15:46;23.40;53.70
17843;DHT22;69286;48.222;16.332;2024-03-23T12:18:13;23.30;53.90
17843;DHT22;69286;48.222;16.332;2024-03-23T12:20:40;23.20;53.90
17843;DHT22;69286;48.222;16.332;2024-03-23T12:23:08;23.10;54.30
17843;DHT22;69286;48.222;16.332;2024-03-23T12:25:35;23.00;54.90
17843;DHT22;69286;48.222;16.332;2024-03-23T12:28:03;22.90;54.70
17843;DHT22;69286;48.222;16.332;2024-03-23T12:30:33;22.90;54.70
17843;DHT22;69286;48.222;16.332;2024-03-23T12:33:01;22.80;53.90
17843;DHT22;69286;48.222;16.332;2024-03-23T12:35:28;22.60;54.20
17843;DHT22;69286;48.222;16.332;2024-03-23T12:37:56;22.70;54.20
17843;DHT22;69286;48.222;16.332;2024-03-23T12:40:22;22.60;54.60
17843;DHT22;69286;48.222;16.332;2024-03-23T12:42:50;22.50;55.00
17843;DHT22;69286;48.222;16.332;2024-03-23T12:45:16;22.40;55.10
17843;DHT22;69286;48.222;16.332;2024-03-23T12:47:44;22.30;55.10
17843;DHT22;69286;48.222;16.332;2024-03-23T12:50:10;22.30;55.10
17843;DHT22;69286;48.222;16.332;2024-03-23T12:52:38;22.20;55.40
17843;DHT22;69286;48.222;16.332;2024-03-23T12:55:04;22.10;56.30
17843;DHT22;69286;48.222;16.332;2024-03-23T12:57:32;21.80;60.30
17843;DHT22;69286;48.222;16.332;2024-03-23T12:59:58;21.30;63.40
17843;DHT22;69286;48.222;16.332;2024-03-23T13:02:26;21.00;65.40
17843;DHT22;69286;48.222;16.332;2024-03-23T13:04:54;20.70;66.70
17843;DHT22;69286;48.222;16.332;2024-03-23T13:07:22;20.50;68.50
17843;DHT22;69286;48.222;16.332;2024-03-23T13:09:50;20.00;70.80
17843;DHT22;69286;48.222;16.332;2024-03-23T13:12:18;19.50;73.50
17843;DHT22;69286;48.222;16.332;2024-03-23T13:14:44;19.20;75.40
17843;DHT22;69286;48.222;16.332;2024-03-23T13:17:11;19.00;76.90
17843;DHT22;69286;48.222;16.332;2024-03-23T13:19:38;18.70;77.80
17843;DHT22;69286;48.222;16.332;2024-03-23T13:22:06;18.60;78.20
17843;DHT22;69286;48.222;16.332;2024-03-23T13:24:32;18.60;78.10
17843;DHT22;69286;48.222;16.332;2024-03-23T13:27:00;18.20;78.40
17843;DHT22;69286;48.222;16.332;2024-03-23T13:29:26;18.10;78.30
17843;DHT22;69286;48.222;16.332;2024-03-23T13:31:53;18.00;78.50
17843;DHT22;69286;48.222;16.332;2024-03-23T13:34:19;18.00;78.90
17843;DHT22;69286;48.222;16.332;2024-03-23T13:36:47;17.90;78.60
17843;DHT22;69286;48.222;16.332;2024-03-23T13:39:15;17.60;78.50
17843;DHT22;69286;48.222;16.332;2024-03-23T13:41:43;17.40;79.60
17843;DHT22;69286;48.222;16.332;2024-03-23T13:44:09;17.40;80.90
17843;DHT22;69286;48.222;16.332;2024-03-23T13:46:37;17.30;79.50
17843;DHT22;69286;48.222;16.332;2024-03-23T13:49:03;17.00;80.30
17843;DHT22;69286;48.222;16.332;2024-03-23T13:51:31;16.80;83.10
17843;DHT22;69286;48.222;16.332;2024-03-23T13:53:57;16.60;84.20
17843;DHT22;69286;48.222;16.332;2024-03-23T13:56:28;16.50;85.40
17843;DHT22;69286;48.222;16.332;2024-03-23T13:58:54;16.20;84.80
17843;DHT22;69286;48.222;16.332;2024-03-23T14:01:21;16.10;85.80
17843;DHT22;69286;48.222;16.332;2024-03-23T14:03:47;16.10;87.50
17843;DHT22;69286;48.222;16.332;2024-03-23T14:06:15;15.70;88.00
17843;DHT22;69286;48.222;16.332;2024-03-23T14:08:41;15.80;88.60
17843;DHT22;69286;48.222;16.332;2024-03-23T14:11:09;15.70;87.60
17843;DHT22;69286;48.222;16.332;2024-03-23T14:13:37;15.60;88.10
17843;DHT22;69286;48.222;16.332;2024-03-23T14:16:06;15.50;87.70
17843;DHT22;69286;48.222;16.332;2024-03-23T14:18:32;15.40;89.20
17843;DHT22;69286;48.222;16.332;2024-03-23T14:21:00;15.40;88.80
17843;DHT22;69286;48.222;16.332;2024-03-23T14:23:26;15.20;89.60
17843;DHT22;69286;48.222;16.332;2024-03-23T14:25:54;15.00;88.40
17843;DHT22;69286;48.222;16.332;2024-03-23T14:28:20;14.80;88.50
17843;DHT22;69286;48.222;16.332;2024-03-23T14:30:49;14.70;90.30
17843;DHT22;69286;48.222;16.332;2024-03-23T14:33:15;14.70;90.30
17843;DHT22;69286;48.222;16.332;2024-03-23T14:35:43;14.60;90.00
17843;DHT22;69286;48.222;16.332;2024-03-23T14:38:09;14.30;90.60
17843;DHT22;69286;48.222;16.332;2024-03-23T14:40:36;14.20;91.60
17843;DHT22;69286;48.222;16.332;2024-03-23T14:43:03;13.90;92.60
17843;DHT22;69286;48.222;16.332;2024-03-23T14:45:30;13.80;93.20
17843;DHT22;69286;48.222;16.332;2024-03-23T14:47:57;13.70;92.80
17843;DHT22;69286;48.222;16.332;2024-03-23T14:50:24;13.60;93.40
17843;DHT22;69286;48.222;16.332;2024-03-23T14:52:50;13.40;93.70
17843;DHT22;69286;48.222;16.332;2024-03-23T14:55:18;13.20;94.30
17843;DHT22;69286;48.222;16.332;2024-03-23T14:57:43;13.30;94.20
17843;DHT22;69286;48.222;16.332;2024-03-23T15:00:11;13.40;94.80
17843;DHT22;69286;48.222;16.332;2024-03-23T15:02:38;13.20;94.10
17843;DHT22;69286;48.222;16.332;2024-03-23T15:05:07;13.10;94.50
17843;DHT22;69286;48.222;16.332;2024-03-23T15:07:35;13.00;94.20
17843;DHT22;69286;48.222;16.332;2024-03-23T15:10:04;12.80;94.50
17843;DHT22;69286;48.222;16.332;2024-03-23T15:12:30;12.90;94.80
17843;DHT22;69286;48.222;16.332;2024-03-23T15:14:59;12.80;94.70
17843;DHT22;69286;48.222;16.332;2024-03-23T15:17:25;12.70;95.10
17843;DHT22;69286;48.222;16.332;2024-03-23T15:19:52;12.50;95.20
17843;DHT22;69286;48.222;16.332;2024-03-23T15:22:22;12.60;95.90
17843;DHT22;69286;48.222;16.332;2024-03-23T15:24:49;12.60;95.70
17843;DHT22;69286;48.222;16.332;2024-03-23T15:27:15;12.50;96.30
17843;DHT22;69286;48.222;16.332;2024-03-23T15:29:42;12.30;96.70
17843;DHT22;69286;48.222;16.332;2024-03-23T15:32:11;12.30;97.00
17843;DHT22;69286;48.222;16.332;2024-03-23T15:34:39;12.20;97.40
17843;DHT22;69286;48.222;16.332;2024-03-23T15:37:05;12.10;97.90
17843;DHT22;69286;48.222;16.332;2024-03-23T15:39:34;12.10;98.30
17843;DHT22;69286;48.222;16.332;2024-03-23T15:42:00;12.10;98.10
17843;DHT22;69286;48.222;16.332;2024-03-23T15:44:26;12.00;98.40
17843;DHT22;69286;48.222;16.332;2024-03-23T15:46:52;12.20;99.00
17843;DHT22;69286;48.222;16.332;2024-03-23T15:49:20;12.10;98.10
17843;DHT22;69286;48.222;16.332;2024-03-23T15:51:46;12.00;97.50
17843;DHT22;69286;48.222;16.332;2024-03-23T15:54:13;12.00;97.00
17843;DHT22;69286;48.222;16.332;2024-03-23T15:56:40;12.00;97.10
17843;DHT22;69286;48.222;16.332;2024-03-23T15:59:07;12.00;96.60
17843;DHT22;69286;48.222;16.332;2024-03-23T16:01:33;11.90;95.40
17843;DHT22;69286;48.222;16.332;2024-03-23T16:04:01;11.90;95.50
17843;DHT22;69286;48.222;16.332;2024-03-23T16:06:27;11.90;94.60
17843;DHT22;69286;48.222;16.332;2024-03-23T16:08:54;11.90;94.50
17843;DHT22;69286;48.222;16.332;2024-03-23T16:11:20;11.80;93.60